createdAt,value
2019-04-20T00:00:06.729Z,62.45
2019-04-20T00:01:03.767Z,62.35
2019-04-20T00:02:08.298Z,63.19
2019-04-20T00:03:05.553Z,63.90
2019-04-20T00:04:03.199Z,62.58
2019-04-20T00:05:03.400Z,65.16
2019-04-20T00:06:03.532Z,64.68
2019-04-20T00:07:04.014Z,64.27
2019-04-20T00:08:08.915Z,64.34
2019-04-20T00:09:12.269Z,63.93
2019-04-20T00:10:13.079Z,62.81
2019-04-20T00:11:12.697Z,62.58
2019-04-20T00:12:12.701Z,62.68
2019-04-20T00:13:19.449Z,63.90
2019-04-20T00:14:13.438Z,62.68
2019-04-20T00:15:07.009Z,59.80
2019-04-20T00:16:06.086Z,63.70
2019-04-20T00:17:05.266Z,63.60
2019-04-20T00:18:08.092Z,63.63
2019-04-20T00:19:07.709Z,63.83
2019-04-20T00:20:13.344Z,63.22
2019-04-20T00:21:10.998Z,64.11
2019-04-20T00:22:10.565Z,63.70
2019-04-20T00:23:11.453Z,63.63
2019-04-20T00:24:13.461Z,65.16
2019-04-20T00:25:15.449Z,65.37
2019-04-20T00:26:17.370Z,64.27
2019-04-20T00:27:29.333Z,65.70
2019-04-20T00:28:24.036Z,65.60
2019-04-20T00:29:27.259Z,65.94
2019-04-20T00:30:32.484Z,64.27
2019-04-20T00:31:23.655Z,64.48
2019-04-20T00:32:19.763Z,64.68
2019-04-20T00:33:27.438Z,64.68
2019-04-20T00:34:18.242Z,67.10
2019-04-20T00:35:10.512Z,67.60
2019-04-20T00:36:09.806Z,67.64
2019-04-20T00:37:10.811Z,67.84
2019-04-20T00:38:09.854Z,67.94
2019-04-20T00:39:11.455Z,68.05
2019-04-20T00:40:10.164Z,67.13
2019-04-20T00:41:13.382Z,67.50
2019-04-20T00:42:14.492Z,69.07
2019-04-20T00:43:15.125Z,69.38
2019-04-20T00:44:17.030Z,68.49
2019-04-20T00:45:19.177Z,68.79
2019-04-20T00:46:22.214Z,69.31
2019-04-20T00:47:25.309Z,68.76
2019-04-20T00:48:22.471Z,69.51
2019-04-20T00:49:27.562Z,69.31
2019-04-20T00:50:28.263Z,68.79
2019-04-20T00:51:31.228Z,67.87
2019-04-20T00:52:44.838Z,69.82
2019-04-20T00:53:22.966Z,69.31
2019-04-20T00:54:13.651Z,69.41
2019-04-20T00:55:12.692Z,69.13
2019-04-20T00:56:11.976Z,69.61
2019-04-20T00:57:22.244Z,69.82
2019-04-20T00:58:20.116Z,69.92
2019-04-20T00:59:30.210Z,69.82
2019-04-20T01:00:35.726Z,69.41
2019-04-20T01:01:35.856Z,70.33
2019-04-20T01:02:29.893Z,70.26
2019-04-20T01:03:29.195Z,70.26
2019-04-20T01:04:38.863Z,70.57
2019-04-20T01:05:27.917Z,71.08
2019-04-20T01:06:34.191Z,69.95
2019-04-20T01:07:27.373Z,69.82
2019-04-20T01:08:17.099Z,70.74
2019-04-20T01:09:14.237Z,71.49
2019-04-20T01:10:15.181Z,70.36
2019-04-20T01:11:16.673Z,69.47
2019-04-20T01:12:21.604Z,70.36
2019-04-20T01:13:20.362Z,70.77
2019-04-20T01:14:22.382Z,70.26
2019-04-20T01:15:28.081Z,70.47
2019-04-20T01:16:29.282Z,71.52
2019-04-20T01:17:17.725Z,71.93
2019-04-20T01:18:16.652Z,71.32
2019-04-20T01:19:19.305Z,72.96
2019-04-20T01:20:16.329Z,72.03
2019-04-20T01:21:20.261Z,72.03
2019-04-20T01:22:22.198Z,71.83
2019-04-20T01:23:22.328Z,71.32
2019-04-20T01:24:24.902Z,71.83
2019-04-20T01:25:27.062Z,73.03
2019-04-20T01:26:21.449Z,71.32
2019-04-20T01:27:32.582Z,71.28
2019-04-20T01:28:37.480Z,72.14
2019-04-20T01:29:30.244Z,72.75
2019-04-20T01:30:28.459Z,72.27
2019-04-20T01:31:29.603Z,71.35
2019-04-20T01:32:31.151Z,71.83
2019-04-20T01:33:34.368Z,71.42
2019-04-20T01:34:37.893Z,69.89
2019-04-20T01:35:39.647Z,69.89
2019-04-20T01:36:42.994Z,70.19
2019-04-20T01:37:35.432Z,70.60
2019-04-20T01:38:34.345Z,71.25
2019-04-20T01:39:28.336Z,71.56
2019-04-20T01:40:23.202Z,71.76
2019-04-20T01:41:20.424Z,72.82
2019-04-20T01:42:21.385Z,71.80
2019-04-20T01:43:20.732Z,72.41
2019-04-20T01:44:26.143Z,72.72
2019-04-20T01:45:29.337Z,72.72
2019-04-20T01:46:26.391Z,73.02
2019-04-20T01:47:25.368Z,73.68
2019-04-20T01:48:28.672Z,73.23
2019-04-20T01:49:28.629Z,73.27
2019-04-20T01:50:28.469Z,73.68
2019-04-20T01:51:29.399Z,72.82
2019-04-20T01:52:28.800Z,72.44
2019-04-20T01:53:41.449Z,72.96
2019-04-20T01:54:38.545Z,73.57
2019-04-20T01:55:48.107Z,74.26
2019-04-20T01:56:38.483Z,73.78
2019-04-20T01:57:37.372Z,74.40
2019-04-20T01:59:02.761Z,73.88
2019-04-20T01:59:34.760Z,73.64
2019-04-20T02:00:30.738Z,73.27
2019-04-20T02:01:31.060Z,74.32
2019-04-20T02:02:27.805Z,75.04
2019-04-20T02:03:31.894Z,74.53
2019-04-20T02:04:32.316Z,74.63
2019-04-20T02:05:31.811Z,75.56
2019-04-20T02:06:28.621Z,75.87
2019-04-20T02:07:33.555Z,74.84
2019-04-20T02:08:29.465Z,75.45
2019-04-20T02:09:29.620Z,75.04
2019-04-20T02:10:37.061Z,74.98
2019-04-20T02:11:34.578Z,74.98
2019-04-20T02:12:31.137Z,75.70
2019-04-20T02:13:38.926Z,75.25
2019-04-20T02:14:40.270Z,76.10
2019-04-20T02:15:36.358Z,75.70
2019-04-20T02:16:35.708Z,76.55
2019-04-20T02:17:37.539Z,77.37
2019-04-20T02:18:41.609Z,77.68
2019-04-20T02:19:44.199Z,76.97
2019-04-20T02:20:48.693Z,77.37
2019-04-20T02:21:47.731Z,76.45
2019-04-20T02:22:46.467Z,76.25
2019-04-20T02:23:40.767Z,76.14
2019-04-20T02:24:32.005Z,76.65
2019-04-20T02:25:31.129Z,76.35
2019-04-20T02:26:30.207Z,76.35
2019-04-20T02:27:36.893Z,77.06
2019-04-20T02:28:55.397Z,77.37
2019-04-20T02:29:50.952Z,77.27
2019-04-20T02:31:14.883Z,76.55
2019-04-20T02:32:10.085Z,77.48
2019-04-20T02:34:03.817Z,76.86
2019-04-20T02:34:59.839Z,76.65
2019-04-20T02:36:10.979Z,77.06
2019-04-20T02:37:14.247Z,76.97
2019-04-20T02:38:18.305Z,76.35
2019-04-20T02:39:27.225Z,77.17
2019-04-20T02:42:07.946Z,77.06
2019-04-20T02:43:09.422Z,76.55
2019-04-20T02:45:58.060Z,76.86
2019-04-20T02:49:29.732Z,77.48
2019-04-20T02:50:07.496Z,77.48
2019-04-20T02:51:08.917Z,77.13
2019-04-20T02:53:11.397Z,76.45
2019-04-20T02:54:18.819Z,76.55
2019-04-20T02:55:09.296Z,76.55
2019-04-20T02:57:14.358Z,77.20
2019-04-20T02:58:12.456Z,77.62
2019-04-20T03:01:00.184Z,78.23
2019-04-20T03:01:55.208Z,78.47
2019-04-20T03:02:53.364Z,77.45
2019-04-20T03:03:44.958Z,78.47
2019-04-20T03:04:45.902Z,80.12
2019-04-20T03:05:51.701Z,78.99
2019-04-20T03:07:01.050Z,78.47
2019-04-20T03:07:57.460Z,78.58
2019-04-20T03:09:06.344Z,79.03
2019-04-20T03:09:58.650Z,79.50
2019-04-20T03:11:09.290Z,78.99
2019-04-20T03:12:04.826Z,78.37
2019-04-20T03:13:04.040Z,78.06
2019-04-20T03:14:00.269Z,79.30
2019-04-20T03:14:57.437Z,79.91
2019-04-20T03:16:01.896Z,80.16
2019-04-20T03:17:03.310Z,79.13
2019-04-20T03:18:03.445Z,80.05
2019-04-20T03:18:58.441Z,80.36
2019-04-20T03:19:57.264Z,80.57
2019-04-20T03:21:08.428Z,80.57
2019-04-20T03:22:09.542Z,80.98
2019-04-20T03:24:16.059Z,81.33
2019-04-20T03:25:07.990Z,80.81
2019-04-20T03:26:05.381Z,82.15
2019-04-20T03:26:59.515Z,81.63
2019-04-20T03:28:05.335Z,80.98
2019-04-20T03:29:03.977Z,81.02
2019-04-20T03:30:04.190Z,80.61
2019-04-20T03:34:38.311Z,81.43
2019-04-20T03:35:15.523Z,81.53
2019-04-20T03:36:18.366Z,81.39
2019-04-20T03:37:15.639Z,81.39
2019-04-20T03:38:04.637Z,81.70
2019-04-20T03:39:01.437Z,81.60
2019-04-20T03:40:01.521Z,80.91
2019-04-20T03:40:59.105Z,80.67
2019-04-20T03:41:50.282Z,80.88
2019-04-20T03:42:48.569Z,81.81
2019-04-20T03:43:45.748Z,81.81
2019-04-20T03:44:52.988Z,80.98
2019-04-20T03:45:54.294Z,82.21
2019-04-20T03:46:53.103Z,82.01
2019-04-20T03:47:57.101Z,82.05
2019-04-20T03:49:04.411Z,82.42
2019-04-20T03:50:16.742Z,81.84
2019-04-20T03:51:08.973Z,81.95
2019-04-20T03:52:09.384Z,81.39
2019-04-20T03:53:09.906Z,81.91
2019-04-20T03:54:02.681Z,81.33
2019-04-20T03:55:07.542Z,82.35
2019-04-20T03:56:03.752Z,82.05
2019-04-20T03:57:13.946Z,81.74
2019-04-20T03:58:10.235Z,82.05
2019-04-20T03:59:07.676Z,81.95
2019-04-20T04:00:15.142Z,81.84
2019-04-20T04:00:59.714Z,82.25
2019-04-20T04:02:22.511Z,83.59
2019-04-20T04:03:26.212Z,82.56
2019-04-20T04:04:10.640Z,82.46
2019-04-20T04:05:08.929Z,82.09
2019-04-20T04:06:02.867Z,81.77
2019-04-20T04:06:55.925Z,83.42
2019-04-20T04:08:03.170Z,83.94
2019-04-20T04:09:02.823Z,83.87
2019-04-20T04:10:09.830Z,83.63
2019-04-20T04:11:12.387Z,82.91
2019-04-20T04:12:06.607Z,82.50
2019-04-20T04:12:53.033Z,83.73
2019-04-20T04:13:52.448Z,82.91
2019-04-20T04:14:51.474Z,82.91
2019-04-20T04:15:57.470Z,82.84
2019-04-20T04:16:57.033Z,82.91
2019-04-20T04:17:53.108Z,83.42
2019-04-20T04:19:01.443Z,84.08
2019-04-20T04:19:59.970Z,83.56
2019-04-20T04:21:01.086Z,83.67
2019-04-20T04:22:08.625Z,83.73
2019-04-20T04:23:09.983Z,82.19
2019-04-20T04:24:07.400Z,81.88
2019-04-20T04:25:07.536Z,82.91
2019-04-20T04:26:17.275Z,82.91
2019-04-20T04:27:05.894Z,82.33
2019-04-20T04:28:10.812Z,82.43
2019-04-20T04:29:19.304Z,83.47
2019-04-20T04:30:09.496Z,83.98
2019-04-20T04:31:12.198Z,83.77
2019-04-20T04:32:21.188Z,83.47
2019-04-20T04:33:42.781Z,83.87
2019-04-20T04:34:12.420Z,83.50
2019-04-20T04:35:09.188Z,84.74
2019-04-20T04:36:15.401Z,84.22
2019-04-20T04:37:18.671Z,84.53
2019-04-20T04:38:15.286Z,84.84
2019-04-20T04:39:20.982Z,84.64
2019-04-20T04:40:27.944Z,84.74
2019-04-20T04:42:39.163Z,84.74
2019-04-20T04:43:19.721Z,84.22
2019-04-20T04:44:11.064Z,84.70
2019-04-20T04:45:04.897Z,85.25
2019-04-20T04:45:57.606Z,85.77
2019-04-20T04:47:00.203Z,85.36
2019-04-20T04:47:59.806Z,85.67
2019-04-20T04:49:05.325Z,85.73
2019-04-20T04:50:09.167Z,85.15
2019-04-20T04:51:07.066Z,85.67
2019-04-20T04:52:06.328Z,84.80
2019-04-20T04:53:09.050Z,84.49
2019-04-20T04:54:13.096Z,83.98
2019-04-20T04:55:12.160Z,84.14
2019-04-20T04:56:07.376Z,83.28
2019-04-20T04:57:01.213Z,82.42
2019-04-20T04:58:00.206Z,81.29
2019-04-20T04:59:00.265Z,81.56
2019-04-20T04:59:59.520Z,80.63
2019-04-20T05:01:05.638Z,80.02
2019-04-20T05:02:02.130Z,79.16
2019-04-20T05:03:03.859Z,79.02
2019-04-20T05:04:21.051Z,78.20
2019-04-20T05:05:23.797Z,77.89
2019-04-20T05:06:19.701Z,78.36
2019-04-20T05:07:16.057Z,77.75
2019-04-20T05:08:12.786Z,77.99
2019-04-20T05:09:06.074Z,77.65
2019-04-20T05:10:05.561Z,77.00
2019-04-20T05:11:02.737Z,76.48
2019-04-20T05:12:09.839Z,75.52
2019-04-20T05:13:04.959Z,75.59
2019-04-20T05:14:07.504Z,75.08
2019-04-20T05:15:13.340Z,75.08
2019-04-20T05:16:18.920Z,74.66
2019-04-20T05:17:20.638Z,74.87
2019-04-20T05:18:27.612Z,76.10
2019-04-20T05:19:41.299Z,76.51
2019-04-20T05:20:21.978Z,76.51
2019-04-20T05:21:25.322Z,76.45
2019-04-20T05:22:26.180Z,76.14
2019-04-20T05:23:20.779Z,75.28
2019-04-20T05:24:22.956Z,74.73
2019-04-20T05:25:29.749Z,72.96
2019-04-20T05:26:26.820Z,71.59
2019-04-20T05:28:20.701Z,68.12
2019-04-20T05:29:15.469Z,66.25
2019-04-20T05:30:07.824Z,66.52
2019-04-20T05:31:07.946Z,65.50
2019-04-20T05:32:13.080Z,65.70
2019-04-20T05:33:16.807Z,66.72
2019-04-20T05:34:33.250Z,67.75
2019-04-20T05:35:37.848Z,66.80
2019-04-20T05:36:29.780Z,64.28
2019-04-20T05:37:34.363Z,63.54
2019-04-20T05:38:35.457Z,63.92
2019-04-20T05:39:32.658Z,63.75
2019-04-20T05:40:35.203Z,65.37
2019-04-20T05:41:26.824Z,65.04
2019-04-20T05:42:30.298Z,63.20
2019-04-20T05:43:29.209Z,63.10
2019-04-20T05:44:22.084Z,62.16
2019-04-20T05:45:25.200Z,62.24
2019-04-20T05:46:32.048Z,60.28
2019-04-20T05:47:29.809Z,59.24
2019-04-20T05:48:24.757Z,57.99
2019-04-20T05:49:30.309Z,57.76
2019-04-20T05:50:31.587Z,56.54
2019-04-20T05:51:36.458Z,56.98
2019-04-20T05:52:43.836Z,56.67
2019-04-20T05:53:34.269Z,56.77
2019-04-20T05:54:32.313Z,57.33
2019-04-20T05:55:35.967Z,55.98
2019-04-20T05:56:35.301Z,55.40
2019-04-20T05:57:38.905Z,56.59
2019-04-20T05:58:32.775Z,55.45
2019-04-20T05:59:37.435Z,52.86
2019-04-20T06:00:39.021Z,56.16
2019-04-20T06:01:40.817Z,55.91
2019-04-20T06:02:33.258Z,57.26
2019-04-20T06:03:33.560Z,58.15
2019-04-20T06:04:46.974Z,58.04
2019-04-20T06:05:36.440Z,57.64
2019-04-20T06:06:37.978Z,57.36
2019-04-20T06:07:35.960Z,58.00
2019-04-20T06:08:51.201Z,59.42
2019-04-20T06:09:39.789Z,59.35
2019-04-20T06:10:41.280Z,59.35
2019-04-20T06:11:50.096Z,58.64
2019-04-20T06:12:38.100Z,58.61
2019-04-20T06:13:29.998Z,58.40
2019-04-20T06:14:31.607Z,57.95
2019-04-20T06:15:40.732Z,57.03
2019-04-20T06:16:44.075Z,58.25
2019-04-20T06:17:40.024Z,57.51
2019-04-20T06:18:32.309Z,56.37
2019-04-20T06:19:35.485Z,54.82
2019-04-20T06:20:41.211Z,54.18
2019-04-20T06:21:38.036Z,53.70
2019-04-20T06:22:57.443Z,54.21
2019-04-20T06:23:47.107Z,54.79
2019-04-20T06:24:44.886Z,54.08
2019-04-20T06:25:45.919Z,54.49
2019-04-20T06:26:49.034Z,55.96
2019-04-20T06:27:40.999Z,55.38
2019-04-20T06:28:37.892Z,57.92
2019-04-20T06:29:43.980Z,57.41
2019-04-20T06:30:33.176Z,57.18
2019-04-20T06:31:40.667Z,54.54
2019-04-20T06:32:44.325Z,55.73
2019-04-20T06:33:52.039Z,55.25
2019-04-20T06:34:36.631Z,55.96
2019-04-20T06:36:01.011Z,54.41
2019-04-20T06:37:48.632Z,54.97
2019-04-20T06:39:44.678Z,55.17
2019-04-20T06:42:02.207Z,54.08
2019-04-20T06:42:39.696Z,54.79
2019-04-20T06:43:45.842Z,55.52
2019-04-20T06:44:41.294Z,51.53
2019-04-20T06:45:53.442Z,49.70
2019-04-20T06:46:54.877Z,50.46
2019-04-20T06:47:47.076Z,48.30
2019-04-20T06:48:49.962Z,47.49
2019-04-20T06:49:46.882Z,45.67
2019-04-20T06:50:41.561Z,45.45
2019-04-20T06:51:47.587Z,46.11
2019-04-20T06:52:36.802Z,45.98
2019-04-20T06:53:46.918Z,46.53
2019-04-20T06:54:43.441Z,47.14
2019-04-20T06:55:48.593Z,47.69
2019-04-20T06:56:48.138Z,49.10
2019-04-20T06:57:51.656Z,48.05
2019-04-20T06:59:04.425Z,47.19
2019-04-20T06:59:48.926Z,47.52
2019-04-20T07:00:46.650Z,49.38
2019-04-20T07:01:56.890Z,49.81
2019-04-20T07:04:06.665Z,48.50
2019-04-20T07:04:47.492Z,48.10
2019-04-20T07:05:44.728Z,46.25
2019-04-20T07:08:56.955Z,46.57
2019-04-20T07:10:06.804Z,47.72
2019-04-20T07:10:51.727Z,47.52
2019-04-20T07:11:46.456Z,47.17
2019-04-20T07:12:45.070Z,47.05
2019-04-20T07:13:39.459Z,46.53
2019-04-20T07:14:41.535Z,46.33
2019-04-20T07:15:42.779Z,46.00
2019-04-20T07:16:44.758Z,47.20
2019-04-20T07:17:54.713Z,47.49
2019-04-20T07:18:53.201Z,44.87
2019-04-20T07:19:44.480Z,44.75
2019-04-20T07:20:55.419Z,44.38
2019-04-20T07:22:07.227Z,44.73
2019-04-20T07:22:55.955Z,48.14
2019-04-20T07:23:55.872Z,48.41
2019-04-20T07:26:06.734Z,48.21
2019-04-20T07:26:49.270Z,48.99
2019-04-20T07:27:56.478Z,48.24
2019-04-20T07:28:54.175Z,46.20
2019-04-20T07:29:51.913Z,44.07
2019-04-20T07:30:50.264Z,45.45
2019-04-20T07:31:49.946Z,45.82
2019-04-20T07:34:51.677Z,45.36
2019-04-20T07:35:53.419Z,46.25
2019-04-20T07:36:57.427Z,46.95
2019-04-20T07:38:56.799Z,42.88
2019-04-20T07:39:53.960Z,43.66
2019-04-20T07:40:49.984Z,44.69
2019-04-20T07:41:56.954Z,44.89
2019-04-20T07:42:55.267Z,41.03
2019-04-20T07:44:04.438Z,37.71
2019-04-20T07:45:55.879Z,40.66
2019-04-20T07:47:01.822Z,39.96
2019-04-20T07:48:01.441Z,40.97
2019-04-20T07:48:58.039Z,38.97
2019-04-20T07:49:49.818Z,39.58
2019-04-20T07:50:44.893Z,40.56
2019-04-20T07:51:39.097Z,41.99
2019-04-20T07:52:46.170Z,42.27
2019-04-20T07:54:07.682Z,42.10
2019-04-20T07:55:19.212Z,41.89
2019-04-20T07:56:02.426Z,42.10
2019-04-20T07:56:53.740Z,43.02
2019-04-20T07:57:52.858Z,41.67
2019-04-20T07:58:47.489Z,41.95
2019-04-20T07:59:55.821Z,40.39
2019-04-20T08:01:04.168Z,41.77
2019-04-20T08:02:08.216Z,39.25
2019-04-20T08:03:03.031Z,39.61
2019-04-20T08:04:05.644Z,39.18
2019-04-20T08:04:56.339Z,41.13
2019-04-20T08:05:48.510Z,41.37
2019-04-20T08:06:45.664Z,42.78
2019-04-20T08:07:49.595Z,42.16
2019-04-20T08:08:53.093Z,41.33
2019-04-20T08:09:46.636Z,39.39
2019-04-20T08:10:53.965Z,40.51
2019-04-20T08:12:07.808Z,41.71
2019-04-20T08:13:02.239Z,42.47
2019-04-20T08:13:59.021Z,40.99
2019-04-20T08:15:05.035Z,40.51
2019-04-20T08:16:00.780Z,40.43
2019-04-20T08:17:14.418Z,41.19
2019-04-20T08:18:02.445Z,39.65
2019-04-20T08:18:59.775Z,39.73
2019-04-20T08:20:00.137Z,39.59
2019-04-20T08:21:16.701Z,39.79
2019-04-20T08:21:58.829Z,39.41
2019-04-20T08:22:58.595Z,39.11
2019-04-20T08:24:02.499Z,39.51
2019-04-20T08:24:59.248Z,39.50
2019-04-20T08:25:54.312Z,38.66
2019-04-20T08:26:49.676Z,38.31
2019-04-20T08:27:42.315Z,39.23
2019-04-20T08:28:46.776Z,38.21
2019-04-20T08:29:53.002Z,39.20
2019-04-20T08:31:02.350Z,38.04
2019-04-20T08:32:04.419Z,37.02
2019-04-20T08:32:58.535Z,38.64
2019-04-20T08:34:15.272Z,39.14
2019-04-20T08:35:05.069Z,39.12
2019-04-20T08:36:04.680Z,38.76
2019-04-20T08:37:01.391Z,38.56
2019-04-20T08:38:35.005Z,36.04
2019-04-20T08:40:07.174Z,35.27
2019-04-20T08:40:59.622Z,36.58
2019-04-20T08:42:06.340Z,36.77
2019-04-20T08:43:17.253Z,35.57
2019-04-20T08:44:09.441Z,36.47
2019-04-20T08:46:05.309Z,37.76
2019-04-20T08:47:12.255Z,36.96
2019-04-20T08:48:14.081Z,38.47
2019-04-20T08:49:11.328Z,38.06
2019-04-20T08:50:12.074Z,38.20
2019-04-20T08:51:06.073Z,38.81
2019-04-20T08:52:22.995Z,38.49
2019-04-20T08:53:16.042Z,38.29
2019-04-20T08:54:03.389Z,38.39
2019-04-20T08:55:04.918Z,38.77
2019-04-20T08:56:00.024Z,37.98
2019-04-20T08:56:52.253Z,38.85
2019-04-20T08:57:46.791Z,36.27
2019-04-20T08:58:46.106Z,38.31
2019-04-20T08:59:48.229Z,38.21
2019-04-20T09:00:53.614Z,37.00
2019-04-20T09:01:46.831Z,38.59
2019-04-20T09:02:52.143Z,37.77
2019-04-20T09:03:58.911Z,36.80
2019-04-20T09:04:55.225Z,37.79
2019-04-20T09:06:00.514Z,38.20
2019-04-20T09:07:02.324Z,35.97
2019-04-20T09:08:00.498Z,35.39
2019-04-20T09:09:07.648Z,36.47
2019-04-20T09:10:14.369Z,34.78
2019-04-20T09:11:08.282Z,36.36
2019-04-20T09:12:05.843Z,36.77
2019-04-20T09:13:02.343Z,37.26
2019-04-20T09:13:55.196Z,35.99
2019-04-20T09:14:49.094Z,36.30
2019-04-20T09:15:47.215Z,34.89
2019-04-20T09:16:54.559Z,34.48
2019-04-20T09:17:56.040Z,33.30
2019-04-20T09:18:58.964Z,33.65
2019-04-20T09:19:58.625Z,33.55
2019-04-20T09:20:58.925Z,34.25
2019-04-20T09:21:55.161Z,34.05
2019-04-20T09:23:06.958Z,33.05
2019-04-20T09:25:25.064Z,33.98
2019-04-20T09:26:10.077Z,33.10
2019-04-20T09:27:05.604Z,33.70
2019-04-20T09:27:59.684Z,33.43
2019-04-20T09:29:11.794Z,38.10
2019-04-20T09:30:09.138Z,34.80
2019-04-20T09:31:09.499Z,36.34
2019-04-20T09:32:11.390Z,33.83
2019-04-20T09:33:14.315Z,35.44
2019-04-20T09:34:06.510Z,36.12
2019-04-20T09:35:13.584Z,36.42
2019-04-20T09:36:10.015Z,34.33
2019-04-20T09:37:16.808Z,35.14
2019-04-20T09:38:11.826Z,33.73
2019-04-20T09:39:06.186Z,32.95
2019-04-20T09:40:15.066Z,35.63
2019-04-20T09:41:10.055Z,33.39
2019-04-20T09:42:00.478Z,32.99
2019-04-20T09:42:54.290Z,33.00
2019-04-20T09:43:52.576Z,36.25
2019-04-20T09:44:55.952Z,34.75
2019-04-20T09:46:00.033Z,36.42
2019-04-20T09:46:59.423Z,35.34
2019-04-20T09:47:57.042Z,36.40
2019-04-20T09:48:59.296Z,35.10
2019-04-20T09:50:08.967Z,33.02
2019-04-20T09:51:16.961Z,34.71
2019-04-20T09:52:11.149Z,35.17
2019-04-20T09:53:10.075Z,36.07
2019-04-20T09:54:17.071Z,35.36
2019-04-20T09:55:10.765Z,35.08
2019-04-20T09:56:12.983Z,38.59
2019-04-20T09:57:14.989Z,38.20
2019-04-20T09:58:08.435Z,38.07
2019-04-20T09:59:16.364Z,38.16
2019-04-20T10:00:15.517Z,38.43
2019-04-20T10:01:13.291Z,39.33
2019-04-20T10:02:06.633Z,39.61
2019-04-20T10:02:58.222Z,35.24
2019-04-20T10:03:57.083Z,35.21
2019-04-20T10:04:57.758Z,38.01
2019-04-20T10:05:57.476Z,35.72
2019-04-20T10:07:00.022Z,38.41
2019-04-20T10:08:03.350Z,35.94
2019-04-20T10:09:02.846Z,36.46
2019-04-20T10:09:58.255Z,37.75
2019-04-20T10:10:57.454Z,35.94
2019-04-20T10:11:59.568Z,35.16
2019-04-20T10:12:58.408Z,35.31
2019-04-20T10:13:59.298Z,34.84
2019-04-20T10:15:05.092Z,36.00
2019-04-20T10:15:59.801Z,37.30
2019-04-20T10:17:00.284Z,34.31
2019-04-20T10:17:59.584Z,35.10
2019-04-20T10:18:58.852Z,38.35
2019-04-20T10:20:02.558Z,35.38
2019-04-20T10:21:01.978Z,36.60
2019-04-20T10:22:00.426Z,37.98
2019-04-20T10:23:00.603Z,38.06
2019-04-20T10:24:00.766Z,38.79
2019-04-20T10:25:00.874Z,36.24
2019-04-20T10:26:00.724Z,37.92
2019-04-20T10:27:01.226Z,36.02
2019-04-20T10:28:01.347Z,36.44
2019-04-20T10:29:01.625Z,36.62
2019-04-20T10:30:04.731Z,36.60
2019-04-20T10:31:02.289Z,35.54
2019-04-20T10:32:05.714Z,35.96
2019-04-20T10:33:03.502Z,36.09
2019-04-20T10:34:03.930Z,38.54
2019-04-20T10:35:02.555Z,34.94
2019-04-20T10:36:03.553Z,35.56
2019-04-20T10:37:03.881Z,36.16
2019-04-20T10:38:03.230Z,34.96
2019-04-20T10:39:02.424Z,36.74
2019-04-20T10:40:04.746Z,36.64
2019-04-20T10:41:11.674Z,34.52
2019-04-20T10:42:06.058Z,34.68
2019-04-20T10:43:04.521Z,35.71
2019-04-20T10:44:03.229Z,33.60
2019-04-20T10:45:04.694Z,33.29
2019-04-20T10:46:04.714Z,35.08
2019-04-20T10:47:05.013Z,32.82
2019-04-20T10:48:05.428Z,34.55
2019-04-20T10:49:04.877Z,35.24
2019-04-20T10:50:05.316Z,34.53
2019-04-20T10:51:05.233Z,33.34
2019-04-20T10:52:05.477Z,33.44
2019-04-20T10:53:05.760Z,35.29
2019-04-20T10:54:04.992Z,32.79
2019-04-20T10:55:06.156Z,32.69
2019-04-20T10:56:27.530Z,30.89
2019-04-20T10:57:05.876Z,32.20
2019-04-20T10:58:07.319Z,33.88
2019-04-20T10:59:07.729Z,32.78
2019-04-20T11:00:06.144Z,33.40
2019-04-20T11:01:07.413Z,34.53
2019-04-20T11:02:07.796Z,34.23
2019-04-20T11:03:07.986Z,35.94
2019-04-20T11:04:08.445Z,35.61
2019-04-20T11:05:08.556Z,35.19
2019-04-20T11:06:07.137Z,33.40
2019-04-20T11:07:08.306Z,33.15
2019-04-20T11:08:08.505Z,35.03
2019-04-20T11:09:08.915Z,32.92
2019-04-20T11:10:17.807Z,33.70
2019-04-20T11:11:16.646Z,34.20
2019-04-20T11:12:10.515Z,34.38
2019-04-20T11:13:09.620Z,34.17
2019-04-20T11:14:16.328Z,34.88
2019-04-20T11:15:10.638Z,34.48
2019-04-20T11:16:08.788Z,33.83
2019-04-20T11:17:09.038Z,34.23
2019-04-20T11:18:11.213Z,33.65
2019-04-20T11:19:09.506Z,31.73
2019-04-20T11:20:10.607Z,33.29
2019-04-20T11:21:11.273Z,32.41
2019-04-20T11:22:10.451Z,31.73
2019-04-20T11:23:11.832Z,32.72
2019-04-20T11:24:10.348Z,32.39
2019-04-20T11:25:10.537Z,31.40
2019-04-20T11:26:10.706Z,32.79
2019-04-20T11:27:12.046Z,32.48
2019-04-20T11:28:12.344Z,31.58
2019-04-20T11:29:11.209Z,33.72
2019-04-20T11:30:12.105Z,34.55
2019-04-20T11:31:12.612Z,34.43
2019-04-20T11:32:13.462Z,35.92
2019-04-20T11:33:14.053Z,33.69
2019-04-20T11:34:15.025Z,33.45
2019-04-20T11:35:21.293Z,36.11
2019-04-20T11:36:14.943Z,32.15
2019-04-20T11:37:13.026Z,30.16
2019-04-20T11:38:15.431Z,32.84
2019-04-20T11:39:37.017Z,31.95
2019-04-20T11:40:13.031Z,33.75
2019-04-20T11:41:19.969Z,32.96
2019-04-20T11:42:15.406Z,31.45
2019-04-20T11:43:13.666Z,33.65
2019-04-20T11:44:15.751Z,31.57
2019-04-20T11:45:14.991Z,33.36
2019-04-20T11:46:14.567Z,28.79
2019-04-20T11:47:14.747Z,30.91
2019-04-20T11:48:15.820Z,29.22
2019-04-20T11:49:15.675Z,30.18
2019-04-20T11:50:15.626Z,30.79
2019-04-20T11:51:15.817Z,29.06
2019-04-20T11:52:18.294Z,31.13
2019-04-20T11:53:17.479Z,29.65
2019-04-20T11:54:16.619Z,29.96
2019-04-20T11:55:16.035Z,30.38
2019-04-20T11:56:21.292Z,29.98
2019-04-20T11:57:17.497Z,30.07
2019-04-20T11:58:19.612Z,28.86
2019-04-20T11:59:16.975Z,31.92
2019-04-20T12:00:17.264Z,32.12
2019-04-20T12:01:20.823Z,29.24
2019-04-20T12:02:25.361Z,28.77
2019-04-20T12:03:24.767Z,30.07
2019-04-20T12:04:34.005Z,29.04
2019-04-20T12:05:28.323Z,27.50
2019-04-20T12:06:21.074Z,30.41
2019-04-20T12:07:19.231Z,28.99
2019-04-20T12:08:18.696Z,27.47
2019-04-20T12:09:19.056Z,29.04
2019-04-20T12:10:22.208Z,29.88
2019-04-20T12:11:31.959Z,28.58
2019-04-20T12:12:30.091Z,28.77
2019-04-20T12:13:21.062Z,29.06
2019-04-20T12:14:20.674Z,28.99
2019-04-20T12:15:19.442Z,31.68
2019-04-20T12:16:19.637Z,29.90
2019-04-20T12:17:19.808Z,29.90
2019-04-20T12:18:20.026Z,31.58
2019-04-20T12:19:20.745Z,32.45
2019-04-20T12:20:20.909Z,28.38
2019-04-20T12:21:21.092Z,29.14
2019-04-20T12:22:21.520Z,30.10
2019-04-20T12:23:22.351Z,27.83
2019-04-20T12:24:22.665Z,27.46
2019-04-20T12:25:21.132Z,29.14
2019-04-20T12:26:22.631Z,28.34
2019-04-20T12:27:22.779Z,27.86
2019-04-20T12:28:22.056Z,27.88
2019-04-20T12:29:23.793Z,26.87
2019-04-20T12:30:23.908Z,26.80
2019-04-20T12:31:24.697Z,29.27
2019-04-20T12:32:29.597Z,30.04
2019-04-20T12:33:24.473Z,28.75
2019-04-20T12:34:22.799Z,27.48
2019-04-20T12:35:24.244Z,27.68
2019-04-20T12:36:23.977Z,26.98
2019-04-20T12:37:25.087Z,26.49
2019-04-20T12:38:23.546Z,28.90
2019-04-20T12:39:24.903Z,27.06
2019-04-20T12:40:24.028Z,26.48
2019-04-20T12:41:34.419Z,27.47
2019-04-20T12:42:26.310Z,26.98
2019-04-20T12:43:25.573Z,26.45
2019-04-20T12:44:25.822Z,27.20
2019-04-20T12:45:25.937Z,29.19
2019-04-20T12:46:26.753Z,27.88
2019-04-20T12:47:25.770Z,27.77
2019-04-20T12:48:25.922Z,29.07
2019-04-20T12:49:25.878Z,26.55
2019-04-20T12:50:25.730Z,28.94
2019-04-20T12:51:33.501Z,27.57
2019-04-20T12:52:28.294Z,26.96
2019-04-20T12:53:26.533Z,25.26
2019-04-20T12:54:27.286Z,26.48
2019-04-20T12:55:26.874Z,27.08
2019-04-20T12:56:26.693Z,26.48
2019-04-20T12:57:26.920Z,24.90
2019-04-20T12:58:28.901Z,27.00
2019-04-20T12:59:27.867Z,26.49
2019-04-20T13:00:27.761Z,27.68
2019-04-20T13:01:30.138Z,26.28
2019-04-20T13:02:29.213Z,27.66
2019-04-20T13:03:27.997Z,26.99
2019-04-20T13:04:28.231Z,27.97
2019-04-20T13:05:29.665Z,26.70
2019-04-20T13:06:29.929Z,27.10
2019-04-20T13:07:31.589Z,26.21
2019-04-20T13:08:36.921Z,28.97
2019-04-20T13:09:32.512Z,24.87
2019-04-20T13:10:29.581Z,25.67
2019-04-20T13:11:32.056Z,25.49
2019-04-20T13:12:32.390Z,26.70
2019-04-20T13:13:30.436Z,27.81
2019-04-20T13:14:30.652Z,27.71
2019-04-20T13:15:30.122Z,26.22
2019-04-20T13:16:32.265Z,26.22
2019-04-20T13:17:30.557Z,27.50
2019-04-20T13:18:32.908Z,25.71
2019-04-20T13:19:31.200Z,26.39
2019-04-20T13:20:32.077Z,26.67
2019-04-20T13:21:52.792Z,25.08
2019-04-20T13:22:31.627Z,27.06
2019-04-20T13:23:33.093Z,26.37
2019-04-20T13:24:32.404Z,24.69
2019-04-20T13:25:32.901Z,24.60